.
WxDataArchive / Data Records for 2012-12-07
2012-12-06 December 2012 2012-12-08

Data Records for Friday, 07 December 2012

Time	Temp	Chill	HIndex	Humid	Dewpt	 Wind 	HiWind	WindDir	Rain 	Barom 
-----	----	-----	------	-----	-----	------	------	-------	-----	----- 
00:00	37.8	37.8	37.8	87	34.3	0	0	---	0.00	29.968 
00:05	37.8	37.8	37.8	87	34.3	0	0	---	0.00	29.968 
00:10	37.8	37.8	37.8	87	34.3	0	0	---	0.00	29.968 
00:15	37.9	37.9	37.9	87	34.4	0	0	---	0.00	29.961 
00:20	37.9	37.9	37.9	87	34.4	0	0	---	0.00	29.961 
00:25	37.9	37.9	37.9	87	34.4	0	0	---	0.00	29.961 
00:30	38.0	38.0	38.0	87	34.5	0	0	---	0.00	29.956 
00:35	38.0	38.0	38.0	87	34.5	0	0	---	0.00	29.956 
00:40	38.0	38.0	38.0	87	34.5	0	0	---	0.00	29.956 
00:45	38.2	38.2	38.2	87	34.7	0	0	---	0.00	29.957 
00:50	38.2	38.2	38.2	87	34.7	0	0	---	0.00	29.957 
00:55	38.3	38.3	38.3	87	34.8	0	0	---	0.00	29.957 
01:00	38.3	38.3	38.3	87	34.8	0	0	---	0.00	29.954 
01:05	38.5	38.5	38.5	87	35.0	0	0	---	0.00	29.954 
01:10	38.5	38.5	38.5	87	35.0	0	0	---	0.00	29.954 
01:15	38.6	38.6	38.6	87	35.1	0	0	---	0.00	29.948 
01:20	38.6	38.6	38.6	86	34.8	0	0	---	0.00	29.948 
01:25	38.6	38.6	38.6	86	34.8	0	0	---	0.00	29.948 
01:30	38.5	38.5	38.5	87	35.0	0	0	---	0.00	29.944 
01:35	38.5	38.5	38.5	87	35.0	0	0	---	0.00	29.944 
01:40	38.3	38.3	38.3	87	34.8	0	0	---	0.00	29.944 
01:45	38.3	38.3	38.3	87	34.8	0	0	---	0.00	29.946 
01:50	38.2	38.2	38.2	87	34.7	0	0	---	0.00	29.946 
01:55	38.2	38.2	38.2	87	34.7	0	0	---	0.00	29.946 
02:00	38.2	38.2	38.2	87	34.7	0	0	---	0.00	29.952 
02:05	38.3	38.3	38.3	87	34.8	0	0	---	0.00	29.952 
02:10	38.3	38.3	38.3	88	35.1	0	0	---	0.00	29.952 
02:15	38.3	38.3	38.3	88	35.1	0	0	---	0.00	29.961 
02:20	38.3	38.3	38.3	88	35.1	0	0	---	0.00	29.961 
02:25	38.2	38.2	38.2	88	35.0	0	0	---	0.00	29.961 
02:30	38.0	38.0	38.0	88	34.8	0	0	---	0.00	29.962 
02:35	37.9	37.9	37.9	88	34.7	0	0	---	0.00	29.962 
02:40	37.8	37.8	37.8	88	34.6	0	0	---	0.00	29.962 
02:45	37.6	37.6	37.6	88	34.4	0	0	---	0.00	29.964 
02:50	37.3	37.3	37.3	88	34.1	0	0	---	0.00	29.964 
02:55	37.2	37.2	37.2	88	34.0	0	0	---	0.00	29.964 
03:00	36.9	36.9	36.9	88	33.7	0	0	---	0.00	29.964 
03:05	36.8	36.8	36.8	88	33.6	0	0	---	0.00	29.964 
03:10	36.5	36.5	36.5	88	33.3	0	0	---	0.00	29.964 
03:15	36.3	36.3	36.3	88	33.1	0	0	---	0.00	29.960 
03:20	36.0	36.0	36.0	89	33.1	0	0	---	0.00	29.960 
03:25	35.9	35.9	35.9	89	33.0	0	0	---	0.00	29.960 
03:30	35.9	35.9	35.9	89	33.0	0	0	---	0.00	29.961 
03:35	35.9	35.9	35.9	90	33.3	0	0	---	0.00	29.961 
03:40	36.0	36.0	36.0	90	33.4	0	0	---	0.00	29.961 
03:45	36.0	36.0	36.0	90	33.4	0	0	---	0.00	29.952 
03:50	36.0	36.0	36.0	90	33.4	0	0	---	0.00	29.952 
03:55	36.0	36.0	36.0	90	33.4	0	0	---	0.00	29.952 
04:00	36.2	36.2	36.2	91	33.8	0	0	---	0.00	29.948 
04:05	36.2	36.2	36.2	91	33.8	0	1	112	0.00	29.948 
04:10	36.2	36.2	36.2	91	33.8	0	0	---	0.00	29.948 
04:15	36.2	36.2	36.2	91	33.8	0	0	---	0.00	29.943 
04:20	36.3	36.3	36.3	91	33.9	0	0	---	0.00	29.943 
04:25	36.5	36.5	36.5	91	34.1	0	0	---	0.00	29.943 
04:30	36.6	36.6	36.6	91	34.2	0	0	---	0.00	29.946 
04:35	36.6	36.6	36.6	91	34.2	0	0	---	0.00	29.946 
04:40	36.8	36.8	36.8	91	34.4	0	0	---	0.00	29.946 
04:45	36.8	36.8	36.8	92	34.7	0	0	---	0.00	29.940 
04:50	36.9	36.9	36.9	92	34.8	0	0	---	0.00	29.940 
04:55	37.0	37.0	37.0	92	34.9	0	0	---	0.00	29.940 
05:00	37.0	37.0	37.0	92	34.9	0	0	---	0.00	29.934 
05:05	37.0	37.0	37.0	92	34.9	0	0	---	0.00	29.934 
05:10	37.0	37.0	37.0	92	34.9	0	0	---	0.00	29.934 
05:15	37.0	37.0	37.0	92	34.9	0	0	---	0.00	29.933 
05:20	37.0	37.0	37.0	92	34.9	0	0	---	0.00	29.933 
05:25	37.0	37.0	37.0	92	34.9	0	0	---	0.00	29.933 
05:30	37.0	37.0	37.0	92	34.9	0	0	---	0.00	29.933 
05:35	37.0	37.0	37.0	92	34.9	0	0	---	0.00	29.933 
05:40	37.0	37.0	37.0	92	34.9	0	0	---	0.00	29.933 
05:45	37.0	37.0	37.0	92	34.9	0	0	---	0.00	29.941 
05:50	37.2	37.2	37.2	92	35.1	0	0	---	0.00	29.941 
05:55	37.3	37.3	37.3	92	35.2	0	0	---	0.00	29.941 
06:00	37.5	37.5	37.5	92	35.4	0	0	---	0.00	29.941 
06:05	37.6	37.6	37.6	92	35.5	0	0	---	0.00	29.941 
06:10	37.8	37.8	37.8	92	35.7	0	0	---	0.00	29.941 
06:15	38.2	38.2	38.2	93	36.4	0	0	---	0.00	29.948 
06:20	38.5	38.5	38.5	93	36.7	0	0	---	0.00	29.948 
06:25	38.8	38.8	38.8	93	37.0	0	0	---	0.00	29.948 
06:30	38.9	38.9	38.9	93	37.1	0	0	---	0.00	29.947 
06:35	39.2	39.2	39.2	93	37.3	0	0	---	0.00	29.947 
06:40	39.3	39.3	39.3	93	37.4	0	1	112	0.00	29.947 
06:45	39.5	39.5	39.5	92	37.4	0	0	---	0.00	29.950 
06:50	39.6	39.6	39.6	92	37.5	0	0	---	0.00	29.950 
06:55	39.9	39.9	39.9	92	37.8	0	1	112	0.00	29.950 
07:00	40.1	40.1	40.1	92	38.0	0	0	---	0.00	29.955 
07:05	40.2	40.2	40.2	92	38.1	0	1	112	0.00	29.955 
07:10	40.2	40.2	40.2	92	38.1	0	1	112	0.00	29.955 
07:15	40.3	40.3	40.3	92	38.2	0	0	---	0.00	29.963 
07:20	40.5	40.5	40.5	92	38.4	0	0	---	0.00	29.963 
07:25	40.6	40.6	40.6	91	38.2	0	0	---	0.00	29.963 
07:30	40.8	40.8	40.8	91	38.4	0	1	112	0.00	29.963 
07:35	40.9	40.9	40.9	91	38.5	0	1	112	0.00	29.963 
07:40	41.1	41.1	41.1	91	38.7	0	1	112	0.00	29.963 
07:45	41.3	41.3	41.3	91	38.9	0	2	112	0.00	29.963 
07:50	41.5	41.5	41.5	91	39.1	0	2	112	0.00	29.963 
07:55	41.5	41.5	41.5	90	38.8	0	1	112	0.00	29.963 
08:00	41.5	41.5	41.5	90	38.8	0	0	---	0.00	29.962 
08:05	41.5	41.5	41.5	90	38.8	0	0	---	0.00	29.962 
08:10	41.6	41.6	41.6	90	38.9	0	2	112	0.00	29.962 
08:15	41.6	41.6	41.6	91	39.2	0	1	112	0.00	29.969 
08:20	41.6	41.6	41.6	91	39.2	0	1	112	0.00	29.969 
08:25	41.6	41.6	41.6	91	39.2	0	0	---	0.00	29.969 
08:30	41.6	41.6	41.6	91	39.2	0	1	112	0.01	29.968 
08:35	41.6	41.6	41.6	91	39.2	0	0	---	0.00	29.968 
08:40	41.6	41.6	41.6	91	39.2	0	0	---	0.00	29.968 
08:45	41.6	41.6	41.6	91	39.2	0	0	---	0.00	29.968 
08:50	41.6	41.6	41.6	91	39.2	0	0	---	0.00	29.968 
08:55	41.6	41.6	41.6	91	39.2	0	0	---	0.00	29.968 
09:00	41.6	41.6	41.6	91	39.2	0	0	---	0.00	29.968 
09:05	41.8	41.8	41.8	92	39.6	0	0	---	0.00	29.968 
09:10	41.8	41.8	41.8	92	39.6	0	0	---	0.00	29.968 
09:15	41.8	41.8	41.8	92	39.6	0	0	---	0.01	29.973 
09:20	41.8	41.8	41.8	92	39.6	0	0	---	0.00	29.973 
09:25	41.9	41.9	41.9	92	39.7	0	0	---	0.00	29.973 
09:30	41.9	41.9	41.9	92	39.7	0	1	112	0.00	29.975 
09:35	42.1	42.1	42.1	92	39.9	0	0	---	0.00	29.975 
09:40	42.2	42.2	42.2	92	40.0	0	0	---	0.00	29.975 
09:45	42.2	42.2	42.2	92	40.0	0	0	---	0.00	29.975 
09:50	42.3	42.3	42.3	92	40.1	0	0	---	0.00	29.975 
09:55	42.3	42.3	42.3	92	40.1	0	0	---	0.00	29.975 
10:00	42.5	42.5	42.5	93	40.6	0	0	---	0.00	29.970 
10:05	42.6	42.6	42.6	93	40.7	0	0	---	0.00	29.970 
10:10	42.6	42.6	42.6	93	40.7	0	0	---	0.01	29.970 
10:15	42.6	42.6	42.6	93	40.7	0	0	---	0.00	29.962 
10:20	42.8	42.8	42.8	93	40.9	0	0	---	0.00	29.962 
10:25	42.8	42.8	42.8	93	40.9	0	0	---	0.00	29.962 
10:30	42.9	42.9	42.9	93	41.0	0	1	112	0.00	29.963 
10:35	42.9	42.9	42.9	93	41.0	0	0	---	0.00	29.963 
10:40	43.1	43.1	43.1	93	41.2	0	1	112	0.00	29.963 
10:45	43.1	43.1	43.1	93	41.2	0	1	112	0.00	29.966 
10:50	43.1	43.1	43.1	93	41.2	0	1	112	0.00	29.966 
10:55	43.2	43.2	43.2	93	41.3	0	0	---	0.00	29.966 
11:00	43.2	43.2	43.2	93	41.3	0	0	---	0.00	29.961 
11:05	43.3	43.3	43.3	93	41.4	0	0	---	0.00	29.961 
11:10	43.3	43.3	43.3	93	41.4	0	0	---	0.00	29.961 
11:15	43.3	43.3	43.3	93	41.4	0	0	---	0.00	29.961 
11:20	43.5	43.5	43.5	93	41.6	0	0	---	0.00	29.961 
11:25	43.5	43.5	43.5	93	41.6	0	0	---	0.00	29.961 
11:30	43.6	43.6	43.6	93	41.7	0	0	---	0.00	29.954 
11:35	43.8	43.8	43.8	93	41.9	0	0	---	0.00	29.954 
11:40	43.8	43.8	43.8	93	41.9	0	0	---	0.00	29.954 
11:45	43.9	43.9	43.9	93	42.0	0	1	112	0.00	29.948 
11:50	43.9	43.9	43.9	93	42.0	0	2	112	0.00	29.948 
11:55	43.9	43.9	43.9	93	42.0	0	1	112	0.00	29.948 
12:00	44.1	44.1	44.1	93	42.2	0	1	112	0.00	29.942 
12:05	44.1	44.1	44.1	93	42.2	0	1	112	0.00	29.942 
12:10	44.2	44.2	44.2	93	42.3	0	2	112	0.00	29.942 
12:15	44.2	44.2	44.2	93	42.3	0	2	112	0.00	29.935 
12:20	44.2	44.2	44.2	92	42.0	0	2	112	0.00	29.935 
12:25	44.2	44.2	44.2	92	42.0	0	2	112	0.00	29.935 
12:30	44.2	44.2	44.2	92	42.0	0	2	112	0.00	29.930 
12:35	44.3	44.3	44.3	92	42.1	0	3	112	0.00	29.930 
12:40	44.3	44.3	44.3	92	42.1	0	2	112	0.00	29.930 
12:45	44.3	44.3	44.3	92	42.1	0	2	112	0.00	29.926 
12:50	44.5	44.5	44.5	92	42.3	1	3	112	0.00	29.926 
12:55	44.5	44.5	44.5	92	42.3	1	4	112	0.00	29.926 
13:00	44.5	44.5	44.5	92	42.3	0	2	112	0.00	29.918 
13:05	44.5	44.5	44.5	91	42.0	0	2	112	0.00	29.918 
13:10	44.6	44.6	44.6	91	42.1	0	1	112	0.00	29.918 
13:15	44.6	44.6	44.6	91	42.1	0	2	112	0.00	29.915 
13:20	44.6	44.6	44.6	91	42.1	0	3	112	0.00	29.915 
13:25	44.6	44.6	44.6	91	42.1	0	3	112	0.00	29.915 
13:30	44.9	44.9	44.9	91	42.4	0	1	158	0.00	29.911 
13:35	44.9	44.9	44.9	91	42.4	0	1	158	0.00	29.911 
13:40	45.1	45.1	45.1	91	42.6	0	1	158	0.00	29.911 
13:45	45.2	45.2	45.2	91	42.7	0	1	158	0.00	29.907 
13:50	45.4	45.4	45.4	91	42.9	0	1	158	0.00	29.907 
13:55	45.4	45.4	45.4	91	42.9	0	2	158	0.00	29.907 
14:00	45.5	45.5	45.5	91	43.0	0	1	158	0.00	29.901 
14:05	45.7	45.7	45.7	90	42.9	0	1	158	0.00	29.901 
14:10	45.8	45.8	45.8	90	43.0	0	2	158	0.00	29.901 
14:15	46.0	46.0	46.0	90	43.2	0	0	---	0.00	29.901 
14:20	46.0	46.0	46.0	90	43.2	0	1	158	0.00	29.901 
14:25	46.1	46.1	46.1	89	43.0	0	1	158	0.00	29.901 
14:30	46.1	46.1	46.1	89	43.0	0	2	158	0.00	29.897 
14:35	46.2	46.2	46.2	89	43.1	0	1	158	0.00	29.897 
14:40	46.4	46.4	46.4	89	43.3	0	1	158	0.00	29.897 
14:45	46.4	46.4	46.4	89	43.3	0	0	---	0.00	29.896 
14:50	46.4	46.4	46.4	89	43.3	0	0	---	0.00	29.896 
14:55	46.4	46.4	46.4	88	43.0	0	1	158	0.00	29.896 
15:00	46.5	46.5	46.5	88	43.1	0	0	---	0.00	29.893 
15:05	46.7	46.7	46.7	88	43.3	0	0	---	0.00	29.893 
15:10	46.7	46.7	46.7	88	43.3	0	0	---	0.00	29.893 
15:15	46.7	46.7	46.7	88	43.3	0	0	---	0.00	29.893 
15:20	46.8	46.8	46.8	88	43.4	0	0	---	0.00	29.893 
15:25	46.8	46.8	46.8	88	43.4	0	0	---	0.00	29.893 
15:30	46.8	46.8	46.8	88	43.4	0	0	---	0.00	29.890 
15:35	46.8	46.8	46.8	88	43.4	0	0	---	0.00	29.890 
15:40	46.8	46.8	46.8	88	43.4	0	0	---	0.00	29.890 
15:45	46.8	46.8	46.8	88	43.4	0	0	---	0.00	29.888 
15:50	46.8	46.8	46.8	88	43.4	0	0	---	0.00	29.888 
15:55	46.8	46.8	46.8	88	43.4	0	0	---	0.00	29.888 
16:00	46.8	46.8	46.8	88	43.4	0	0	---	0.00	29.886 
16:05	46.8	46.8	46.8	88	43.4	0	0	---	0.00	29.886 
16:10	46.8	46.8	46.8	88	43.4	0	0	---	0.00	29.886 
16:15	46.7	46.7	46.7	88	43.3	0	0	---	0.00	29.884 
16:20	46.7	46.7	46.7	89	43.6	0	0	---	0.00	29.884 
16:25	46.7	46.7	46.7	89	43.6	0	0	---	0.00	29.884 
16:30	46.5	46.5	46.5	89	43.4	0	0	---	0.01	29.889 
16:35	46.4	46.4	46.4	89	43.3	0	0	---	0.00	29.889 
16:40	46.2	46.2	46.2	89	43.1	0	0	---	0.00	29.889 
16:45	46.1	46.1	46.1	90	43.3	0	0	---	0.00	29.894 
16:50	46.1	46.1	46.1	90	43.3	0	0	---	0.00	29.894 
16:55	46.0	46.0	46.0	90	43.2	0	0	---	0.00	29.894 
17:00	46.0	46.0	46.0	90	43.2	0	0	---	0.01	29.895 
17:05	45.8	45.8	45.8	91	43.3	0	0	---	0.00	29.895 
17:10	45.7	45.7	45.7	91	43.2	0	0	---	0.00	29.895 
17:15	45.7	45.7	45.7	91	43.2	0	0	---	0.00	29.889 
17:20	45.5	45.5	45.5	91	43.0	0	0	---	0.00	29.889 
17:25	45.5	45.5	45.5	91	43.0	0	0	---	0.00	29.889 
17:30	45.4	45.4	45.4	91	42.9	0	1	158	0.00	29.892 
17:35	45.2	45.2	45.2	92	43.0	0	1	158	0.00	29.892 
17:40	45.2	45.2	45.2	92	43.0	0	0	---	0.00	29.892 
17:45	45.1	45.1	45.1	92	42.9	0	0	---	0.00	29.895 
17:50	45.1	45.1	45.1	92	42.9	0	1	158	0.00	29.895 
17:55	45.1	45.1	45.1	92	42.9	0	1	158	0.01	29.895 
18:00	44.9	44.9	44.9	92	42.7	0	2	158	0.00	29.893 
18:05	44.9	44.9	44.9	92	42.7	0	2	158	0.00	29.893 
18:10	44.9	44.9	44.9	92	42.7	0	0	---	0.00	29.893 
18:15	44.8	44.8	44.8	92	42.6	0	1	158	0.00	29.893 
18:20	44.8	44.8	44.8	93	42.9	0	1	158	0.00	29.893 
18:25	44.8	44.8	44.8	93	42.9	0	1	158	0.00	29.893 
18:30	44.6	44.6	44.6	93	42.7	0	0	---	0.00	29.894 
18:35	44.6	44.6	44.6	93	42.7	0	2	158	0.00	29.894 
18:40	44.6	44.6	44.6	93	42.7	0	1	158	0.00	29.894 
18:45	44.6	44.6	44.6	93	42.7	0	4	112	0.01	29.893 
18:50	44.6	44.6	44.6	93	42.7	0	1	112	0.00	29.893 
18:55	44.5	44.5	44.5	93	42.6	1	4	112	0.00	29.893 
19:00	44.5	44.5	44.5	93	42.6	0	2	112	0.00	29.889 
19:05	44.5	44.5	44.5	94	42.9	0	0	---	0.00	29.889 
19:10	44.5	44.5	44.5	94	42.9	1	5	112	0.00	29.889 
19:15	44.5	44.5	44.5	94	42.9	0	1	112	0.00	29.888 
19:20	44.3	44.3	44.3	94	42.7	1	3	112	0.00	29.888 
19:25	44.3	44.3	44.3	94	42.7	0	3	112	0.00	29.888 
19:30	44.3	44.3	44.3	94	42.7	0	3	112	0.00	29.889 
19:35	44.3	44.3	44.3	94	42.7	1	3	112	0.00	29.889 
19:40	44.2	44.2	44.2	94	42.6	1	3	112	0.00	29.889 
19:45	44.2	44.2	44.2	94	42.6	0	3	112	0.00	29.886 
19:50	44.2	44.2	44.2	94	42.6	0	2	112	0.00	29.886 
19:55	44.1	44.1	44.1	94	42.5	0	1	112	0.00	29.886 
20:00	44.1	44.1	44.1	94	42.5	0	1	112	0.00	29.889 
20:05	44.1	44.1	44.1	94	42.5	0	2	112	0.00	29.889 
20:10	44.1	44.1	44.1	94	42.5	0	2	112	0.01	29.889 
20:15	44.1	44.1	44.1	94	42.5	0	2	112	0.00	29.887 
20:20	44.1	44.1	44.1	94	42.5	0	2	112	0.00	29.887 
20:25	44.1	44.1	44.1	94	42.5	1	2	112	0.00	29.887 
20:30	44.1	44.1	44.1	95	42.8	1	3	112	0.00	29.888 
20:35	43.9	43.9	43.9	95	42.6	1	3	112	0.00	29.888 
20:40	43.9	43.9	43.9	95	42.6	1	2	112	0.00	29.888 
20:45	43.9	43.9	43.9	95	42.6	1	4	112	0.00	29.879 
20:50	43.9	43.9	43.9	95	42.6	1	3	112	0.00	29.879 
20:55	43.9	43.9	43.9	95	42.6	1	3	112	0.00	29.879 
21:00	43.9	43.9	43.9	95	42.6	1	5	112	0.00	29.876 
21:05	43.9	43.9	43.9	95	42.6	1	4	112	0.00	29.876 
21:10	43.9	43.9	43.9	95	42.6	1	4	112	0.00	29.876 
21:15	43.8	43.8	43.8	95	42.5	0	3	112	0.00	29.872 
21:20	43.8	43.8	43.8	95	42.5	0	2	112	0.00	29.872 
21:25	43.8	43.8	43.8	95	42.5	0	2	112	0.00	29.872 
21:30	43.8	43.8	43.8	95	42.5	0	2	112	0.01	29.869 
21:35	43.8	43.8	43.8	95	42.5	0	2	112	0.00	29.869 
21:40	43.8	43.8	43.8	95	42.5	1	5	90	0.00	29.869 
21:45	43.8	43.8	43.8	95	42.5	1	3	90	0.00	29.862 
21:50	43.8	43.8	43.8	95	42.5	1	4	90	0.00	29.862 
21:55	43.8	43.8	43.8	95	42.5	1	3	90	0.00	29.862 
22:00	43.8	43.8	43.8	95	42.5	1	3	90	0.01	29.857 
22:05	43.6	43.6	43.6	95	42.3	2	6	90	0.00	29.857 
22:10	43.6	43.6	43.6	95	42.3	1	5	90	0.00	29.857 
22:15	43.6	43.6	43.6	95	42.3	2	6	112	0.00	29.845 
22:20	43.6	43.6	43.6	95	42.3	1	6	112	0.00	29.845 
22:25	43.6	43.6	43.6	95	42.3	1	3	90	0.00	29.845 
22:30	43.6	43.6	43.6	95	42.3	1	6	90	0.00	29.844 
22:35	43.6	43.6	43.6	96	42.5	1	5	90	0.00	29.844 
22:40	43.6	43.6	43.6	95	42.3	1	4	112	0.00	29.844 
22:45	43.6	43.6	43.6	96	42.5	2	5	90	0.00	29.845 
22:50	43.6	43.6	43.6	96	42.5	2	5	112	0.00	29.845 
22:55	43.6	43.6	43.6	96	42.5	1	4	112	0.00	29.845 
23:00	43.5	43.5	43.5	96	42.4	1	5	112	0.00	29.844 
23:05	43.5	43.5	43.5	96	42.4	0	2	112	0.00	29.844 
23:10	43.5	43.5	43.5	96	42.4	1	5	112	0.00	29.844 
23:15	43.5	43.5	43.5	96	42.4	1	6	112	0.00	29.831 
23:20	43.5	43.5	43.5	96	42.4	2	6	90	0.00	29.831 
23:25	43.5	43.5	43.5	96	42.4	2	5	112	0.00	29.831 
23:30	43.5	43.5	43.5	96	42.4	1	3	112	0.00	29.829 
23:35	43.3	43.3	43.3	96	42.2	1	4	112	0.01	29.829 
23:40	43.3	43.3	43.3	96	42.2	2	6	90	0.00	29.829 
23:45	43.3	43.3	43.3	96	42.2	2	5	90	0.00	29.831 
23:50	43.3	43.3	43.3	96	42.2	2	5	90	0.00	29.831 
23:55	43.5	43.5	43.5	96	42.4	2	9	90	0.00	29.831 

CoCoRaHS
IN-AL-39
A2 Web Hosting
Creative Commons License
GoDaddy
search engine by freefind advanced

loaded 2018-11-20 07:15:51 • last modified 2010-11-18 10:43:29
Privacy PolicyDisclaimer
• wx.awcolley.com is powered by PmWiki v.2002016 •
• all content (unless otherwise noted) © 2018 A W Colley